Time;durP1;ratioP1;P1;durP2;ratioP2;P2;SDS_P1;SDS_P2;PMS_P1;PMS_P2;Temp;Humidity;BMP_temperature;BMP_pressure;BME280_temperature;BME280_humidity;BME280_pressure;Samples;Min_cycle;Max_cycle;Signal;HPM_P1;HPM_P2
2024/04/12 00:01:39;;;;;;;12.65;8.48;;;409.70;2355.20;;;;;;5381317;26;20000;-72
2024/04/12 00:04:08;;;;;;;13.25;8.20;;;409.70;2355.20;;;;;;5376554;26;20220;-71
2024/04/12 00:06:37;;;;;;;12.98;8.23;;;409.70;2355.20;;;;;;5374488;26;20004;-72
2024/04/12 00:09:09;;;;;;;13.77;8.00;;;409.70;2355.20;;;;;;5376652;26;20015;-73
2024/04/12 00:11:39;;;;;;;12.35;7.88;;;409.60;2355.20;;;;;;5388692;26;20000;-72
2024/04/12 00:14:05;;;;;;;13.05;8.07;;;409.70;2355.20;;;;;;5380800;26;20003;-71
2024/04/12 00:16:32;;;;;;;16.50;8.48;;;384.90;2329.60;;;;;;5379135;26;20439;-71
2024/04/12 00:19:12;;;;;;;14.25;7.63;;;409.60;2355.20;;;;;;5375618;26;20015;-71
2024/04/12 00:21:41;;;;;;;12.90;7.40;;;384.90;2329.60;;;;;;5386696;26;20010;-71
2024/04/12 00:24:11;;;;;;;11.73;8.05;;;384.90;2329.60;;;;;;5402738;26;20003;-73
2024/04/12 00:26:43;;;;;;;13.27;7.90;;;409.80;2355.20;;;;;;5408944;26;20028;-72
2024/04/12 00:29:36;;;;;;;11.35;7.20;;;384.80;2329.60;;;;;;5385229;26;19999;-73
2024/04/12 00:32:03;;;;;;;14.02;7.85;;;384.80;2329.60;;;;;;5384637;26;20011;-70
2024/04/12 00:34:47;;;;;;;10.88;7.35;;;384.80;2329.60;;;;;;5383884;26;20001;-70
2024/04/12 00:37:15;;;;;;;13.15;7.25;;;384.80;2329.60;;;;;;5375444;26;20000;-71
2024/04/12 00:39:47;;;;;;;12.35;7.32;;;384.80;2329.60;;;;;;5387903;26;20001;-73
2024/04/12 00:42:15;;;;;;;14.38;7.18;;;384.80;2329.60;;;;;;5384527;26;19999;-73
2024/04/12 00:44:42;;;;;;;11.00;6.60;;;384.80;2329.60;;;;;;5374639;26;20018;-71
2024/04/12 00:47:20;;;;;;;11.43;7.22;;;384.80;2329.60;;;;;;5375416;26;20484;-71
2024/04/12 00:49:50;;;;;;;10.55;7.10;;;384.80;2329.60;;;;;;5377297;26;20050;-71
2024/04/12 00:52:23;;;;;;;11.80;6.80;;;384.70;2329.60;;;;;;5384844;26;19996;-72
2024/04/12 00:54:53;;;;;;;11.02;7.28;;;384.70;2329.60;;;;;;5386967;26;20000;-72
2024/04/12 00:57:21;;;;;;;10.98;7.18;;;;;;;;;;5393126;26;20443;-74
2024/04/12 00:59:51;;;;;;;10.63;7.07;;;;;;;;;;5384752;26;20319;-74
2024/04/12 01:02:21;;;;;;;11.73;7.63;;;;;;;;;;5381383;26;20354;-73
2024/04/12 01:04:48;;;;;;;12.73;7.05;;;;;;;;;;5384559;26;20055;-73
2024/04/12 01:07:13;;;;;;;12.95;7.22;;;384.90;2329.60;;;;;;5375571;26;20008;-71
2024/04/12 01:09:43;;;;;;;12.55;7.05;;;384.60;2329.60;;;;;;5379863;26;19996;-71
2024/04/12 01:12:13;;;;;;;12.30;7.55;;;;;;;;;;5411215;26;20434;-69
2024/04/12 01:14:39;;;;;;;12.68;7.20;;;;;;;;;;5393896;26;20052;-70
2024/04/12 01:17:10;;;;;;;14.85;7.20;;;;;;;;;;5396096;26;20000;-70
2024/04/12 01:19:38;;;;;;;13.05;7.50;;;384.80;2329.60;;;;;;5388518;26;20429;-69
2024/04/12 01:22:04;;;;;;;10.73;7.60;;;384.50;2329.60;;;;;;5391086;26;20015;-70
2024/04/12 01:24:32;;;;;;;12.93;7.07;;;384.50;2329.60;;;;;;5412975;26;20034;-71
2024/04/12 01:27:01;;;;;;;11.52;7.10;;;384.70;2329.60;;;;;;5413585;26;20101;-70
2024/04/12 01:29:27;;;;;;;11.57;7.07;;;384.50;2329.60;;;;;;5401853;26;19999;-70
2024/04/12 01:31:53;;;;;;;10.23;7.05;;;;;;;;;;5392091;26;20000;-71
2024/04/12 01:34:20;;;;;;;13.02;7.25;;;;;;;;;;5382550;26;20027;-70
2024/04/12 01:36:46;;;;;;;9.27;6.82;;;;;;;;;;5393406;26;20004;-71
2024/04/12 01:39:12;;;;;;;11.65;7.25;;;;;;;;;;5380933;26;20822;-69
2024/04/12 01:41:38;;;;;;;12.18;6.80;;;;;;;;;;5377497;26;20001;-69
2024/04/12 01:44:06;;;;;;;8.80;6.53;;;;;;;;;;5396035;26;20084;-71
2024/04/12 01:46:37;;;;;;;13.27;6.82;;;;;;;;;;5385202;26;20001;-70
2024/04/12 01:49:05;;;;;;;10.20;6.75;;;;;;;;;;5378313;26;20004;-73
2024/04/12 01:51:34;;;;;;;11.02;6.80;;;;;;;;;;5377178;26;19996;-71
2024/04/12 01:54:13;;;;;;;11.50;6.30;;;;;;;;;;5377279;26;20012;-70
2024/04/12 01:56:41;;;;;;;11.20;6.80;;;;;;;;;;5377407;26;19988;-70
2024/04/12 01:59:07;;;;;;;10.77;6.55;;;;;;;;;;5377567;26;19996;-70
2024/04/12 02:01:34;;;;;;;9.50;7.00;;;;;;;;;;5409619;26;20007;-69
2024/04/12 02:04:02;;;;;;;11.07;6.75;;;;;;;;;;5390121;26;20007;-70
2024/04/12 02:06:33;;;;;;;12.75;6.43;;;;;;;;;;5391598;26;19996;-70
2024/04/12 02:08:59;;;;;;;10.77;6.47;;;;;;;;;;5396855;26;20076;-71
2024/04/12 02:11:25;;;;;;;12.35;6.60;;;;;;;;;;5390965;26;20076;-71
2024/04/12 02:13:53;;;;;;;9.68;6.45;;;;;;;;;;5397738;26;20432;-71
2024/04/12 02:16:20;;;;;;;11.82;6.50;;;;;;;;;;5381785;26;20077;-71
2024/04/12 02:18:47;;;;;;;12.88;6.10;;;;;;;;;;5376490;26;20001;-71
2024/04/12 02:21:13;;;;;;;10.05;6.03;;;;;;;;;;5387405;26;20000;-71
2024/04/12 02:23:40;;;;;;;10.52;6.25;;;;;;;;;;5392614;26;20107;-71
2024/04/12 02:26:09;;;;;;;10.55;6.25;;;;;;;;;;5382586;26;20015;-70
2024/04/12 02:28:36;;;;;;;8.77;6.20;;;;;;;;;;5397631;26;20011;-70
2024/04/12 02:31:08;;;;;;;13.27;6.60;;;384.30;2329.60;;;;;;5412815;26;19991;-70
2024/04/12 02:33:34;;;;;;;10.38;6.00;;;;;;;;;;5412439;26;20003;-70
2024/04/12 02:36:02;;;;;;;9.38;5.78;;;;;;;;;;5412540;26;20023;-71
2024/04/12 02:38:28;;;;;;;9.25;6.22;;;;;;;;;;5398404;26;19999;-71
2024/04/12 02:40:57;;;;;;;9.82;5.97;;;;;;;;;;5391957;26;20000;-70
2024/04/12 02:43:24;;;;;;;9.93;6.13;;;;;;;;;;5387877;26;20015;-70
2024/04/12 02:45:50;;;;;;;9.15;5.80;;;;;;;;;;5412436;26;20075;-69
2024/04/12 02:48:17;;;;;;;9.10;5.80;;;;;;;;;;5412843;26;19995;-69
2024/04/12 02:50:43;;;;;;;10.32;5.97;;;;;;;;;;5412334;26;20007;-69
2024/04/12 02:53:17;;;;;;;12.30;6.28;;;;;;;;;;5411498;26;20068;-70
2024/04/12 02:55:43;;;;;;;10.57;5.72;;;;;;;;;;5410368;26;20027;-70
2024/04/12 02:58:09;;;;;;;10.73;5.65;;;;;;;;;;5398143;26;20004;-70
2024/04/12 03:00:37;;;;;;;8.73;5.95;;;;;;;;;;5408154;26;20000;-69
2024/04/12 03:03:04;;;;;;;10.40;6.00;;;;;;;;;;5383029;26;20003;-70
2024/04/12 03:05:32;;;;;;;9.15;5.72;;;;;;;;;;5391787;26;20077;-71
2024/04/12 03:08:00;;;;;;;12.32;5.95;;;;;;;;;;5404897;26;20010;-70
2024/04/12 03:10:32;;;;;;;10.85;6.10;;;;;;;;;;5408010;26;20072;-70
2024/04/12 03:13:01;;;;;;;10.65;6.35;;;;;;;;;;5383764;26;20000;-71
2024/04/12 03:15:27;;;;;;;10.88;6.18;;;;;;;;;;5394839;26;20566;-70
2024/04/12 03:17:53;;;;;;;10.80;6.13;;;;;;;;;;5392641;26;20442;-70
2024/04/12 03:20:20;;;;;;;12.55;6.43;;;;;;;;;;5394771;26;20004;-71
2024/04/12 03:22:46;;;;;;;9.23;5.95;;;;;;;;;;5387760;26;20000;-70
2024/04/12 03:25:14;;;;;;;10.48;6.20;;;;;;;;;;5389833;26;20011;-71
2024/04/12 03:27:40;;;;;;;11.02;6.80;;;;;;;;;;5394296;26;19999;-70
2024/04/12 03:30:15;;;;;;;9.32;6.18;;;384.10;2329.60;;;;;;5395837;26;20000;-71
2024/04/12 03:32:44;;;;;;;11.95;6.60;;;359.20;2329.60;;;;;;5397448;26;20015;-71
2024/04/12 03:35:16;;;;;;;10.20;5.88;;;359.20;2329.60;;;;;;5387354;26;20077;-70
2024/04/12 03:38:36;;;;;;;8.55;6.32;;;359.20;2329.60;;;;;;5385932;26;20443;-71
2024/04/12 03:40:34;;;;;;;8.70;6.68;;;359.10;2329.60;;;;;;5376886;26;20011;-70
2024/04/12 03:43:03;;;;;;;15.30;6.82;;;359.10;2329.60;;;;;;5377869;26;19996;-72
2024/04/12 03:45:35;;;;;;;11.82;6.82;;;359.10;2329.60;;;;;;5388522;26;19996;-71
2024/04/12 03:48:13;;;;;;;11.52;6.90;;;359.10;2329.60;;;;;;5394302;26;20009;-72
2024/04/12 03:50:41;;;;;;;10.93;7.20;;;359.00;2329.60;;;;;;5411752;26;20520;-70
2024/04/12 03:53:16;;;;;;;12.25;7.53;;;359.00;2329.60;;;;;;5410678;26;19995;-71
2024/04/12 03:55:45;;;;;;;11.18;7.43;;;358.90;2329.60;;;;;;5387352;26;20008;-71
2024/04/12 03:58:17;;;;;;;13.85;7.40;;;358.90;2329.60;;;;;;5408796;26;20010;-71
2024/04/12 04:00:46;;;;;;;14.40;7.53;;;358.90;2329.60;;;;;;5383694;26;20008;-72
2024/04/12 04:03:30;;;;;;;12.35;7.72;;;358.80;2329.60;;;;;;5384417;26;20478;-72
2024/04/12 04:06:11;;;;;;;13.52;7.60;;;358.70;2329.60;;;;;;5386834;26;20011;-71
2024/04/12 04:08:49;;;;;;;14.60;8.60;;;358.60;2329.60;;;;;;5388853;26;20011;-73
2024/04/12 04:11:16;;;;;;;12.52;8.35;;;358.60;2329.60;;;;;;5386988;26;20363;-72
2024/04/12 04:13:44;;;;;;;14.20;8.05;;;358.40;2329.60;;;;;;5384217;26;20032;-70
2024/04/12 04:16:10;;;;;;;13.20;8.18;;;333.70;2329.60;;;;;;5377525;26;20000;-71
2024/04/12 04:18:36;;;;;;;13.75;8.30;;;;;;;;;;5388077;26;20040;-71
2024/04/12 04:21:07;;;;;;;13.30;8.70;;;;;;;;;;5392941;26;20076;-72
2024/04/12 04:23:39;;;;;;;15.52;8.98;;;;;;;;;;5389454;26;20010;-70
2024/04/12 04:26:08;;;;;;;41.30;10.35;;;;;;;;;;5387470;26;20004;-71
2024/04/12 04:28:37;;;;;;;15.43;8.93;;;;;;;;;;5388107;26;20454;-71
2024/04/12 04:31:07;;;;;;;14.50;8.75;;;;;;;;;;5382021;26;20096;-71
2024/04/12 04:33:33;;;;;;;18.25;9.80;;;;;;;;;;5383163;26;20011;-72
2024/04/12 04:36:08;;;;;;;19.55;9.57;;;358.50;2329.60;;;;;;5385927;26;20023;-73
2024/04/12 04:38:36;;;;;;;14.48;9.30;;;333.60;2329.60;;;;;;5392303;26;20414;-73
2024/04/12 04:41:06;;;;;;;13.38;9.48;;;333.60;2329.60;;;;;;5397596;26;20016;-73
2024/04/12 04:43:35;;;;;;;13.25;9.73;;;333.60;2329.60;;;;;;5385968;26;20011;-72
2024/04/12 04:48:51;;;;;;;16.73;10.35;;;333.70;2329.60;;;;;;5388653;26;20083;-73
2024/04/12 04:51:17;;;;;;;14.95;9.77;;;333.60;2329.60;;;;;;5385344;26;19999;-72
2024/04/12 04:53:43;;;;;;;15.70;9.75;;;333.60;2329.60;;;;;;5385284;26;20073;-72
2024/04/12 04:56:12;;;;;;;15.23;9.77;;;333.60;2329.60;;;;;;5391822;26;20004;-72
2024/04/12 04:58:41;;;;;;;15.73;9.63;;;333.60;2329.60;;;;;;5389096;26;20000;-72
2024/04/12 05:01:11;;;;;;;12.95;9.35;;;333.60;2329.60;;;;;;5383698;26;20442;-72
2024/04/12 05:03:38;;;;;;;13.70;9.98;;;333.70;2329.60;;;;;;5385138;26;20015;-72
2024/04/12 05:06:06;;;;;;;13.02;9.90;;;333.70;2329.60;;;;;;5392039;26;20060;-73
2024/04/12 05:08:35;;;;;;;16.13;10.05;;;358.40;2329.60;;;;;;5389341;26;20011;-71
2024/04/12 05:11:05;;;;;;;20.17;10.32;;;358.40;2329.60;;;;;;5388916;26;20015;-73
2024/04/12 05:13:37;;;;;;;17.90;9.48;;;358.50;2329.60;;;;;;5386388;26;20083;-71
2024/04/12 05:16:15;;;;;;;17.45;10.10;;;358.60;2329.60;;;;;;5383546;26;20000;-72
2024/04/12 05:18:44;;;;;;;15.57;9.90;;;358.90;2329.60;;;;;;5386218;26;20009;-73
2024/04/12 05:21:13;;;;;;;14.35;9.07;;;358.70;2329.60;;;;;;5414169;26;20077;-73
2024/04/12 05:23:39;;;;;;;16.50;9.43;;;358.90;2329.60;;;;;;5382283;26;19991;-72
2024/04/12 05:26:06;;;;;;;14.63;9.07;;;358.90;2329.60;;;;;;5384578;26;20004;-72
2024/04/12 05:28:33;;;;;;;14.82;8.93;;;359.10;2329.60;;;;;;5380797;26;20454;-72
2024/04/12 05:30:59;;;;;;;13.38;8.98;;;359.10;2329.60;;;;;;5382049;26;20011;-74
2024/04/12 05:33:27;;;;;;;13.02;9.13;;;359.20;2329.60;;;;;;5380676;26;20035;-72
2024/04/12 05:35:56;;;;;;;17.27;8.95;;;359.20;2329.60;;;;;;5386009;26;20011;-71
2024/04/12 05:38:24;;;;;;;13.88;8.80;;;359.30;2329.60;;;;;;5383719;26;19992;-72
2024/04/12 05:40:53;;;;;;;16.02;8.95;;;359.30;2329.60;;;;;;5402287;26;20011;-72
2024/04/12 05:43:21;;;;;;;14.43;8.35;;;384.00;2329.60;;;;;;5380929;26;19996;-74
2024/04/12 05:45:49;;;;;;;16.75;9.05;;;384.20;2329.60;;;;;;5402796;26;20085;-72
2024/04/12 05:48:22;;;;;;;15.77;8.70;;;384.20;2329.60;;;;;;5391160;26;20098;-73
2024/04/12 05:50:53;;;;;;;14.52;8.43;;;384.20;2329.60;;;;;;5382453;26;20008;-73
2024/04/12 05:53:24;;;;;;;14.27;8.40;;;384.30;2329.60;;;;;;5390408;26;20010;-72
2024/04/12 05:58:36;;;;;;;15.65;9.30;;;384.60;2329.60;;;;;;5392983;26;20499;-74
2024/04/12 06:01:07;;;;;;;19.60;8.50;;;384.90;2329.60;;;;;;5387834;26;20020;-74
2024/04/12 06:03:48;;;;;;;25.75;8.50;;;409.60;2355.20;;;;;;5393487;26;20029;-74
2024/04/12 06:06:14;;;;;;;16.73;8.05;;;409.80;2355.20;;;;;;5404024;26;19999;-72
2024/04/12 06:08:47;;;;;;;12.13;8.00;;;;;;;;;;5384304;26;20004;-74
2024/04/12 06:11:13;;;;;;;12.60;8.15;;;410.50;2355.20;;;;;;5397940;26;20068;-72
2024/04/12 06:13:39;;;;;;;14.35;7.93;;;410.40;2355.20;;;;;;5394602;26;20016;-71
2024/04/12 06:16:05;;;;;;;11.77;7.22;;;410.50;2355.20;;;;;;5380709;26;20019;-72
2024/04/12 06:18:31;;;;;;;13.63;7.55;;;435.20;2355.20;;;;;;5385449;26;20093;-71
2024/04/12 06:20:57;;;;;;;12.15;7.07;;;435.30;2355.20;;;;;;5402410;26;19999;-71
2024/04/12 06:23:23;;;;;;;12.52;6.60;;;435.40;2355.20;;;;;;5382259;26;20000;-72
2024/04/12 06:25:49;;;;;;;89.00;11.82;;;435.60;2355.20;;;;;;5374864;26;20004;-72
2024/04/12 06:28:19;;;;;;;10.65;6.80;;;435.70;2355.20;;;;;;5392811;26;20327;-72
2024/04/12 06:30:47;;;;;;;14.50;7.65;;;436.10;2355.20;;;;;;5384715;26;20449;-71
2024/04/12 06:33:22;;;;;;;12.20;6.93;;;436.00;2355.20;;;;;;5381862;26;20036;-72
2024/04/12 06:35:49;;;;;;;;;;;460.80;2380.80;;;;;;5384983;26;20442;-70
2024/04/12 06:38:21;;;;;;;16.60;6.45;;;460.90;2380.80;;;;;;5378749;26;19934;-72
2024/04/12 06:40:55;;;;;;;10.13;5.97;;;487.30;2380.80;;;;;;5386803;26;20011;-74
2024/04/12 06:43:22;;;;;;;9.55;6.30;;;640.10;1817.60;;;;;;5378335;26;20418;-71
2024/04/12 06:46:07;;;;;;;12.98;6.38;;;691.50;1510.40;;;;;;5374481;26;19999;-70
2024/04/12 06:48:34;;;;;;;11.02;6.45;;;691.70;1433.60;;;;;;5394847;26;19996;-73
2024/04/12 06:51:00;;;;;;;10.85;6.10;;;717.50;1382.40;;;;;;5387437;26;20007;-73
2024/04/12 06:53:26;;;;;;;8.63;6.10;;;;;;;;;;5386966;26;20071;-74
2024/04/12 06:55:59;;;;;;;11.93;6.60;;;;;;;;;;5378971;26;20082;-73
2024/04/12 06:58:26;;;;;;;10.32;6.43;;;;;;;;;;5394234;26;20015;-72
2024/04/12 07:00:56;;;;;;;11.77;7.53;;;819.50;1177.60;;;;;;5382718;26;19997;-73
2024/04/12 07:03:23;;;;;;;11.55;6.53;;;768.30;1228.80;;;;;;5384158;26;20446;-73
2024/04/12 07:05:55;;;;;;;8.48;5.95;;;691.60;1356.80;;;;;;5390141;26;20106;-72
2024/04/12 07:08:26;;;;;;;13.75;6.68;;;640.30;1510.40;;;;;;5391563;26;20039;-73
2024/04/12 07:10:53;;;;;;;10.88;6.60;;;614.70;1561.60;;;;;;5383029;26;20319;-72
2024/04/12 07:13:21;;;;;;;9.02;6.25;;;588.90;1638.40;;;;;;5377343;26;20069;-72
2024/04/12 07:15:50;;;;;;;9.93;6.07;;;563.40;1766.40;;;;;;5380884;26;20012;-72
2024/04/12 07:18:16;;;;;;;9.10;5.70;;;563.50;1766.40;;;;;;5388927;26;20402;-72
2024/04/12 07:20:44;;;;;;;11.15;6.13;;;563.20;1792.00;;;;;;5379235;26;20031;-72
2024/04/12 07:23:16;;;;;;;10.35;6.10;;;538.20;1817.60;;;;;;5413724;26;19996;-72
2024/04/12 07:25:45;;;;;;;8.02;6.00;;;537.90;1843.20;;;;;;5401447;26;20471;-72
2024/04/12 07:28:14;;;;;;;9.40;5.80;;;537.90;1868.80;;;;;;5378411;26;20027;-72
2024/04/12 07:30:44;;;;;;;8.60;5.30;;;537.70;1894.40;;;;;;5399870;26;20008;-72
2024/04/12 07:33:13;;;;;;;12.25;5.97;;;538.00;1920.00;;;;;;5413079;26;19999;-72
2024/04/12 07:35:51;;;;;;;7.93;5.53;;;538.10;1894.40;;;;;;5413394;26;20010;-72
2024/04/12 07:38:17;;;;;;;11.18;5.97;;;538.50;1868.80;;;;;;5412882;26;20064;-72
2024/04/12 07:40:46;;;;;;;8.23;5.35;;;563.20;1868.80;;;;;;5401980;26;19996;-72
2024/04/12 07:43:12;;;;;;;8.43;5.15;;;538.40;1868.80;;;;;;5377907;26;20012;-72
2024/04/12 07:45:41;;;;;;;8.93;5.45;;;563.20;1894.40;;;;;;5379865;26;20007;-72
2024/04/12 07:50:54;;;;;;;10.52;5.60;;;563.40;1894.40;;;;;;5392650;26;20421;-72
2024/04/12 07:53:23;;;;;;;7.50;5.15;;;563.50;1868.80;;;;;;5379082;26;20012;-73
2024/04/12 07:56:00;;;;;;;17.77;5.90;;;564.00;1868.80;;;;;;5377307;26;20331;-73
2024/04/12 07:58:27;;;;;;;37.47;6.90;;;563.80;1868.80;;;;;;5378109;26;20012;-72
2024/04/12 08:01:09;;;;;;;13.13;5.57;;;588.90;1817.60;;;;;;5408386;26;20000;-72
2024/04/12 08:03:38;;;;;;;13.93;6.00;;;564.10;1817.60;;;;;;5412559;26;20439;-73
2024/04/12 08:06:04;;;;;;;13.13;6.20;;;588.90;1792.00;;;;;;5393881;26;20077;-73
2024/04/12 08:08:31;;;;;;;14.20;5.93;;;564.10;1817.60;;;;;;5377456;26;20390;-73
2024/04/12 08:10:58;;;;;;;9.77;6.15;;;589.00;1792.00;;;;;;5377614;26;20015;-73
2024/04/12 08:13:28;;;;;;;11.35;5.68;;;589.40;1792.00;;;;;;5391432;26;20033;-72
2024/04/12 08:16:00;;;;;;;11.57;5.70;;;589.70;1715.20;;;;;;5412172;26;19991;-73
2024/04/12 08:18:27;;;;;;;10.27;5.35;;;589.70;1715.20;;;;;;5411709;26;20067;-72
2024/04/12 08:21:01;;;;;;;12.25;5.57;;;614.50;1715.20;;;;;;5413312;26;20011;-72
2024/04/12 08:23:29;;;;;;;8.23;5.20;;;614.70;1740.80;;;;;;5413262;26;20023;-73
2024/04/12 08:25:58;;;;;;;7.35;5.10;;;614.70;1766.40;;;;;;5401778;26;20000;-73
2024/04/12 08:28:24;;;;;;;11.90;5.70;;;;;;;;;;5376194;26;20012;-74
2024/04/12 08:30:53;;;;;;;10.77;5.60;;;615.10;1689.60;;;;;;5377224;26;19996;-72
2024/04/12 08:33:24;;;;;;;10.55;6.40;;;615.20;1715.20;;;;;;5377260;26;20356;-73
2024/04/12 08:35:55;;;;;;;10.88;6.32;;;614.90;1689.60;;;;;;5405270;26;20284;-73
2024/04/12 08:38:24;;;;;;;10.18;5.85;;;614.90;1715.20;;;;;;5413754;26;20435;-74
2024/04/12 08:41:01;;;;;;;15.07;6.80;;;615.10;1715.20;;;;;;5403582;26;20011;-74
2024/04/12 08:43:41;;;;;;;9.50;6.43;;;614.80;1664.00;;;;;;5376928;26;20010;-73
2024/04/12 08:46:17;;;;;;;12.75;6.00;;;614.40;1689.60;;;;;;5385255;26;20018;-73
2024/04/12 08:48:46;;;;;;;11.27;6.72;;;589.70;1715.20;;;;;;5377435;26;20000;-73
2024/04/12 08:51:21;;;;;;;9.77;5.97;;;589.70;1715.20;;;;;;5404629;26;20009;-72
2024/04/12 08:53:56;;;;;;;11.20;6.45;;;589.70;1740.80;;;;;;5407922;26;20004;-72
2024/04/12 08:56:24;;;;;;;12.05;6.45;;;614.50;1715.20;;;;;;5388366;26;20074;-72
2024/04/12 08:58:52;;;;;;;11.90;6.78;;;589.70;1715.20;;;;;;5412624;26;20430;-73
2024/04/12 09:01:25;;;;;;;12.27;6.43;;;589.50;1766.40;;;;;;5389897;26;20018;-73
2024/04/12 09:03:58;;;;;;;11.60;6.28;;;589.70;1792.00;;;;;;5402686;26;20003;-72
2024/04/12 09:06:24;;;;;;;12.00;5.88;;;614.50;1740.80;;;;;;5378718;26;20004;-73
2024/04/12 09:08:53;;;;;;;7.43;5.70;;;614.60;1715.20;;;;;;5380933;26;20014;-72
2024/04/12 09:11:20;;;;;;;11.88;5.80;;;;;;;;;;5381264;26;20076;-73
2024/04/12 09:13:48;;;;;;;10.98;6.32;;;615.00;1740.80;;;;;;5388701;26;20016;-73
2024/04/12 09:16:19;;;;;;;9.10;5.55;;;614.60;1740.80;;;;;;5385412;26;20000;-74
2024/04/12 09:18:46;;;;;;;11.38;5.78;;;;;;;;;;5382549;26;20008;-73
2024/04/12 09:21:24;;;;;;;9.52;5.90;;;;;;;;;;5386172;26;19996;-73
2024/04/12 09:24:09;;;;;;;11.40;6.55;;;614.60;1740.80;;;;;;5378987;26;20043;-73
2024/04/12 09:26:55;;;;;;;11.75;6.07;;;589.60;1766.40;;;;;;5397361;26;20405;-74
2024/04/12 09:29:26;;;;;;;10.32;5.88;;;589.70;1766.40;;;;;;5402374;26;20003;-73
2024/04/12 09:34:42;;;;;;;11.70;6.60;;;614.80;1689.60;;;;;;5390049;26;20011;-73
2024/04/12 09:42:50;;;;;;;9.18;5.22;;;640.50;1689.60;;;;;;5387053;26;20004;-72
2024/04/12 09:45:19;;;;;;;8.90;5.28;;;640.40;1689.60;;;;;;5403167;26;20104;-72
2024/04/12 10:39:13;;;;;;;8.93;5.50;;;666.40;1484.80;;;;;;5389483;26;20197;-70
2024/04/12 10:41:45;;;;;;;10.50;5.18;;;666.40;1484.80;;;;;;5384835;26;20557;-70
2024/04/12 10:44:13;;;;;;;9.15;5.45;;;666.40;1510.40;;;;;;5382741;26;20011;-71
2024/04/12 10:46:39;;;;;;;9.57;5.53;;;691.30;1484.80;;;;;;5409765;26;20009;-71
2024/04/12 10:49:05;;;;;;;6.45;4.70;;;666.40;1484.80;;;;;;5402298;26;20004;-70
2024/04/12 10:51:39;;;;;;;7.03;4.75;;;666.40;1510.40;;;;;;5386099;26;19999;-73
2024/04/12 10:54:05;;;;;;;10.60;5.28;;;691.20;1510.40;;;;;;5382910;26;20004;-70
2024/04/12 10:56:31;;;;;;;6.93;4.93;;;691.20;1459.20;;;;;;5394798;26;20323;-71
2024/04/12 10:58:59;;;;;;;10.02;4.80;;;666.20;1510.40;;;;;;5407579;26;20010;-71
2024/04/12 11:01:26;;;;;;;9.18;4.97;;;666.20;1510.40;;;;;;5388929;26;20012;-73
2024/04/12 11:03:58;;;;;;;11.43;5.30;;;665.80;1536.00;;;;;;5382972;26;20004;-71
2024/04/12 11:06:31;;;;;;;10.48;4.97;;;665.80;1561.60;;;;;;5380442;26;20000;-70
2024/04/12 11:09:04;;;;;;;7.93;5.05;;;666.50;1484.80;;;;;;5395492;26;20433;-71
2024/04/12 11:11:38;;;;;;;12.80;4.70;;;691.30;1510.40;;;;;;5382489;26;20008;-72
2024/04/12 11:14:07;;;;;;;9.00;4.70;;;691.40;1484.80;;;;;;5389948;26;20011;-73
2024/04/12 11:31:14;;;;;;;6.63;5.03;;;691.50;1484.80;;;;;;5372473;26;20405;-71
2024/04/12 11:33:45;;;;;;;8.57;5.45;;;691.90;1459.20;;;;;;5375236;26;20011;-72
2024/04/12 11:36:11;;;;;;;12.13;5.30;;;691.80;1433.60;;;;;;5367472;26;20091;-71
2024/04/12 11:38:44;;;;;;;10.50;4.72;;;691.60;1459.20;;;;;;5373991;26;20011;-72
2024/04/12 11:41:15;;;;;;;9.63;5.07;;;692.00;1459.20;;;;;;5369823;26;20011;-72
2024/04/12 11:43:47;;;;;;;9.93;5.15;;;691.70;1382.40;;;;;;5364308;26;19996;-71
2024/04/12 11:46:17;;;;;;;8.25;5.28;;;691.80;1433.60;;;;;;5364803;26;20011;-71
2024/04/12 11:48:43;;;;;;;10.73;5.10;;;691.50;1484.80;;;;;;5364187;26;20008;-71
2024/04/12 11:51:15;;;;;;;10.13;5.13;;;692.10;1433.60;;;;;;5364046;26;20004;-72
2024/04/12 11:53:44;;;;;;;8.98;4.60;;;716.80;1459.20;;;;;;5369735;26;20019;-72
2024/04/12 11:56:10;;;;;;;9.10;4.70;;;717.20;1408.00;;;;;;5370555;26;20000;-72
2024/04/12 11:58:36;;;;;;;10.38;4.85;;;692.00;1433.60;;;;;;5375271;26;20629;-72
2024/04/12 12:01:05;;;;;;;8.95;5.25;;;716.90;1433.60;;;;;;5372063;26;20016;-72
2024/04/12 12:03:31;;;;;;;10.15;5.03;;;717.10;1382.40;;;;;;5371846;26;20007;-71
2024/04/12 12:06:06;;;;;;;36.33;7.05;;;716.80;1433.60;;;;;;5371126;26;20000;-72
2024/04/12 12:08:37;;;;;;;10.40;5.10;;;717.10;1433.60;;;;;;5389201;26;20069;-72
2024/04/12 12:11:06;;;;;;;7.70;5.22;;;717.60;1382.40;;;;;;5385309;26;20427;-71
2024/04/12 12:13:32;;;;;;;9.23;5.43;;;717.40;1408.00;;;;;;5382523;26;20106;-72
2024/04/12 12:15:58;;;;;;;9.60;5.10;;;717.40;1408.00;;;;;;5385333;26;20000;-71
2024/04/12 12:18:27;;;;;;;7.47;4.55;;;717.10;1433.60;;;;;;5386683;26;20011;-71
2024/04/12 12:20:53;;;;;;;9.90;4.78;;;717.00;1408.00;;;;;;5386686;26;20073;-71
2024/04/12 12:23:19;;;;;;;301.25;26.55;;;717.40;1382.40;;;;;;5395232;26;20012;-71
2024/04/12 12:25:47;;;;;;;27.48;5.82;;;717.40;1356.80;;;;;;5397692;26;20022;-72
2024/04/12 12:28:13;;;;;;;10.48;4.00;;;717.70;1331.20;;;;;;5388867;26;20080;-72
2024/04/12 12:30:39;;;;;;;8.93;4.57;;;742.80;1356.80;;;;;;5384606;26;20011;-72
2024/04/12 12:33:07;;;;;;;9.68;4.43;;;742.70;1356.80;;;;;;5375783;26;20007;-71
2024/04/12 12:35:35;;;;;;;7.93;4.53;;;742.40;1382.40;;;;;;5396270;26;20008;-71
2024/04/12 12:38:01;;;;;;;8.05;5.05;;;742.40;1382.40;;;;;;5394830;26;20102;-71
2024/04/12 12:40:30;;;;;;;9.52;4.93;;;742.40;1356.80;;;;;;5391382;26;20434;-72
2024/04/12 12:42:55;;;;;;;9.27;4.40;;;742.50;1382.40;;;;;;5388142;26;20458;-72
2024/04/12 12:45:22;;;;;;;6.72;4.05;;;717.30;1382.40;;;;;;5387294;26;20019;-72
2024/04/12 12:47:48;;;;;;;6.88;4.30;;;717.10;1382.40;;;;;;5397728;26;20015;-71
2024/04/12 12:50:19;;;;;;;8.02;4.13;;;717.40;1356.80;;;;;;5388290;26;20004;-72
2024/04/12 12:52:52;;;;;;;7.30;4.30;;;717.60;1382.40;;;;;;5391758;26;20334;-72
2024/04/12 12:55:22;;;;;;;8.98;4.30;;;717.10;1382.40;;;;;;5377037;26;20327;-72
2024/04/12 12:57:49;;;;;;;7.13;4.00;;;717.10;1408.00;;;;;;5384807;26;20010;-71
2024/04/12 13:00:19;;;;;;;6.30;3.70;;;717.40;1382.40;;;;;;5392007;26;20450;-72
2024/04/12 13:02:50;;;;;;;8.98;4.20;;;717.50;1356.80;;;;;;5395606;26;20024;-72
2024/04/12 13:05:17;;;;;;;7.03;4.10;;;742.70;1331.20;;;;;;5393218;26;20007;-71
2024/04/12 13:07:43;;;;;;;5.97;3.90;;;742.50;1331.20;;;;;;5397061;26;20007;-71
2024/04/12 13:10:12;;;;;;;5.85;4.07;;;717.60;1331.20;;;;;;5389243;26;20012;-71
2024/04/12 13:12:38;;;;;;;6.13;3.90;;;717.40;1305.60;;;;;;5394790;26;19997;-71
2024/04/12 13:15:11;;;;;;;7.88;4.25;;;717.00;1356.80;;;;;;5394937;26;20019;-71
2024/04/12 13:17:37;;;;;;;10.18;3.78;;;717.00;1356.80;;;;;;5390654;26;20008;-72
2024/04/12 13:20:06;;;;;;;8.02;4.10;;;716.80;1382.40;;;;;;5388971;26;19998;-72
2024/04/12 13:22:32;;;;;;;5.80;3.70;;;692.00;1356.80;;;;;;5378307;26;20327;-72
2024/04/12 13:25:01;;;;;;;10.38;4.50;;;716.80;1408.00;;;;;;5385770;26;20039;-71
2024/04/12 13:27:29;;;;;;;9.90;4.47;;;717.00;1382.40;;;;;;5395036;26;20000;-72
2024/04/12 13:29:55;;;;;;;7.65;3.53;;;717.00;1382.40;;;;;;5399741;26;20045;-73
2024/04/12 13:32:21;;;;;;;7.03;3.33;;;717.50;1280.00;;;;;;5393717;26;20000;-71
2024/04/12 13:34:46;;;;;;;8.23;4.05;;;717.70;1254.40;;;;;;5384109;26;20004;-71
2024/04/12 13:37:14;;;;;;;7.03;3.63;;;717.70;1280.00;;;;;;5384873;26;20019;-72
2024/04/12 13:39:40;;;;;;;8.15;4.00;;;742.70;1305.60;;;;;;5393511;26;20454;-71
2024/04/12 13:42:12;;;;;;;6.38;3.70;;;743.00;1280.00;;;;;;5378710;26;20008;-71
2024/04/12 13:52:53;;;;;;;7.97;3.65;;;768.00;1228.80;;;;;;5391126;26;20088;-71
2024/04/12 13:55:22;;;;;;;8.85;3.35;;;768.00;1228.80;;;;;;5385105;26;19997;-71
2024/04/12 13:57:48;;;;;;;4.32;3.42;;;768.10;1228.80;;;;;;5396166;26;20074;-70
2024/04/12 14:00:27;;;;;;;9.00;3.60;;;768.20;1203.20;;;;;;5396105;26;20007;-72
2024/04/12 14:02:54;;;;;;;6.18;3.63;;;768.00;1228.80;;;;;;5391915;26;20086;-71
2024/04/12 14:05:21;;;;;;;8.10;4.05;;;743.00;1228.80;;;;;;5395104;26;20015;-71
2024/04/12 14:07:49;;;;;;;7.93;3.70;;;743.20;1228.80;;;;;;5398537;26;20003;-71
2024/04/12 14:10:20;;;;;;;7.15;3.88;;;743.30;1254.40;;;;;;5385311;26;20015;-70
2024/04/12 14:12:49;;;;;;;7.50;3.53;;;768.00;1254.40;;;;;;5386670;26;20073;-70
2024/04/12 14:15:19;;;;;;;7.13;3.92;;;768.00;1228.80;;;;;;5389459;26;20019;-72
2024/04/12 14:17:45;;;;;;;11.82;4.20;;;768.20;1203.20;;;;;;5392289;26;20752;-70
2024/04/12 14:20:15;;;;;;;10.02;3.95;;;768.20;1228.80;;;;;;5390569;26;20076;-71